createdAt,value
2023-02-06T00:01:43.402Z,68.47
2023-02-06T00:04:12.623Z,68.66
2023-02-06T00:06:41.152Z,68.77
2023-02-06T00:09:10.372Z,69.12
2023-02-06T00:11:39.226Z,69.07
2023-02-06T00:14:07.958Z,69.74
2023-02-06T00:16:36.701Z,69.54
2023-02-06T00:19:05.434Z,69.84
2023-02-06T00:21:35.034Z,69.35
2023-02-06T00:24:04.396Z,69.08
2023-02-06T00:26:33.869Z,68.81
2023-02-06T00:29:02.235Z,68.56
2023-02-06T00:31:30.850Z,68.55
2023-02-06T00:33:59.144Z,68.65
2023-02-06T00:36:27.580Z,68.26
2023-02-06T00:38:55.975Z,68.20
2023-02-06T00:41:24.226Z,68.57
2023-02-06T00:43:52.479Z,68.27
2023-02-06T00:46:20.798Z,68.25
2023-02-06T00:48:49.127Z,68.25
2023-02-06T00:51:17.471Z,68.27
2023-02-06T00:53:45.921Z,67.91
2023-02-06T00:56:14.200Z,67.86
2023-02-06T00:58:42.533Z,67.60
2023-02-06T01:01:10.849Z,68.03
2023-02-06T01:03:39.173Z,67.08
2023-02-06T01:06:07.590Z,66.51
2023-02-06T01:08:35.883Z,67.09
2023-02-06T01:11:13.842Z,67.36
2023-02-06T01:13:42.557Z,66.46
2023-02-06T01:16:13.316Z,66.36
2023-02-06T01:18:42.140Z,66.64
2023-02-06T01:21:16.644Z,67.08
2023-02-06T01:23:45.884Z,67.03
2023-02-06T01:26:16.724Z,67.55
2023-02-06T01:28:47.648Z,67.69
2023-02-06T01:31:22.863Z,67.76
2023-02-06T01:33:52.152Z,67.99
2023-02-06T01:36:21.799Z,68.10
2023-02-06T01:38:51.065Z,68.56
2023-02-06T01:41:21.540Z,68.29
2023-02-06T01:44:08.844Z,68.38
2023-02-06T01:46:37.678Z,68.23
2023-02-06T01:49:07.587Z,68.66
2023-02-06T01:51:36.139Z,68.73
2023-02-06T01:54:07.608Z,68.71
2023-02-06T01:56:42.929Z,68.65
2023-02-06T01:59:11.470Z,68.36
2023-02-06T02:01:40.049Z,68.16
2023-02-06T02:04:12.183Z,68.52
2023-02-06T02:06:42.184Z,68.67
2023-02-06T02:09:10.577Z,68.35
2023-02-06T02:11:42.796Z,68.66
2023-02-06T02:14:16.974Z,68.65
2023-02-06T02:17:34.293Z,68.09
2023-02-06T02:20:17.442Z,67.84
2023-02-06T02:23:09.531Z,67.81
2023-02-06T02:26:06.821Z,67.69
2023-02-06T02:28:35.106Z,67.99
2023-02-06T02:31:36.644Z,68.13
2023-02-06T02:34:31.658Z,68.15
2023-02-06T02:37:20.955Z,68.09
2023-02-06T02:40:09.306Z,68.11
2023-02-06T02:42:54.120Z,68.42
2023-02-06T02:45:25.013Z,68.68
2023-02-06T02:48:19.223Z,68.82
2023-02-06T02:50:47.716Z,68.47
2023-02-06T02:53:16.205Z,68.34
2023-02-06T02:55:44.460Z,68.43
2023-02-06T02:58:17.676Z,68.49
2023-02-06T03:00:56.668Z,68.29
2023-02-06T03:03:29.736Z,68.75
2023-02-06T03:06:12.734Z,68.60
2023-02-06T03:08:53.120Z,68.83
2023-02-06T03:11:22.362Z,69.12
2023-02-06T03:14:17.199Z,69.01
2023-02-06T03:16:55.808Z,68.78
2023-02-06T03:19:35.629Z,69.27
2023-02-06T03:22:06.237Z,69.39
2023-02-06T03:24:39.856Z,69.17
2023-02-06T03:27:17.956Z,69.02
2023-02-06T03:29:49.491Z,69.05
2023-02-06T03:32:27.942Z,68.86
2023-02-06T03:35:29.924Z,69.02
2023-02-06T03:37:58.749Z,69.09
2023-02-06T03:40:30.041Z,69.14
2023-02-06T03:43:02.806Z,69.22
2023-02-06T03:45:44.148Z,69.11
2023-02-06T03:48:22.765Z,68.89
2023-02-06T03:50:55.263Z,69.17
2023-02-06T03:53:25.864Z,68.91
2023-02-06T03:56:00.425Z,68.97
2023-02-06T03:58:28.840Z,69.02
2023-02-06T04:00:57.169Z,69.09
2023-02-06T04:03:27.489Z,69.19
2023-02-06T04:05:55.805Z,69.33
2023-02-06T04:08:24.107Z,69.42
2023-02-06T04:10:52.661Z,69.36
2023-02-06T04:13:20.983Z,69.41
2023-02-06T04:15:49.278Z,69.50
2023-02-06T04:18:17.577Z,69.34
2023-02-06T04:20:46.121Z,69.18
2023-02-06T04:23:14.418Z,69.29
2023-02-06T04:25:42.689Z,69.52
2023-02-06T04:28:10.989Z,69.49
2023-02-06T04:30:39.344Z,69.81
2023-02-06T04:33:07.621Z,69.87
2023-02-06T04:35:36.177Z,70.14
2023-02-06T04:38:04.642Z,69.96
2023-02-06T04:40:32.913Z,69.83
2023-02-06T04:43:01.386Z,70.06
2023-02-06T04:45:29.641Z,70.08
2023-02-06T04:47:59.456Z,69.99
2023-02-06T04:50:32.140Z,70.15
2023-02-06T04:53:00.444Z,70.15
2023-02-06T04:55:29.082Z,70.27
2023-02-06T04:57:57.333Z,70.39
2023-02-06T05:00:25.665Z,70.48
2023-02-06T05:02:54.031Z,70.32
2023-02-06T05:05:22.358Z,70.51
2023-02-06T05:07:50.665Z,70.64
2023-02-06T05:10:19.092Z,70.41
2023-02-06T05:12:48.286Z,70.52
2023-02-06T05:15:16.522Z,70.36
2023-02-06T05:17:45.385Z,70.41
2023-02-06T05:20:13.641Z,70.30
2023-02-06T05:22:41.904Z,70.68
2023-02-06T05:25:10.199Z,70.63
2023-02-06T05:27:38.464Z,70.63
2023-02-06T05:30:07.077Z,70.50
2023-02-06T05:32:35.413Z,70.86
2023-02-06T05:35:03.719Z,70.91
2023-02-06T05:37:31.997Z,71.08
2023-02-06T05:40:00.461Z,71.19
2023-02-06T05:42:28.735Z,71.46
2023-02-06T05:44:57.091Z,71.34
2023-02-06T05:47:26.824Z,71.55
2023-02-06T05:49:55.524Z,71.83
2023-02-06T05:52:23.806Z,71.84
2023-02-06T05:54:52.109Z,71.73
2023-02-06T05:57:20.515Z,71.54
2023-02-06T05:59:48.878Z,71.43
2023-02-06T06:02:17.217Z,71.14
2023-02-06T06:04:45.808Z,71.05
2023-02-06T06:07:14.601Z,71.30
2023-02-06T06:09:43.226Z,71.38
2023-02-06T06:12:11.581Z,71.51
2023-02-06T06:14:39.861Z,71.31
2023-02-06T06:17:08.631Z,71.40
2023-02-06T06:19:37.162Z,71.21
2023-02-06T06:22:05.693Z,71.44
2023-02-06T06:24:33.945Z,71.32
2023-02-06T06:27:02.348Z,71.58
2023-02-06T06:29:31.181Z,71.33
2023-02-06T06:31:59.544Z,71.33
2023-02-06T06:34:28.375Z,71.42
2023-02-06T06:36:56.726Z,71.29
2023-02-06T06:39:25.192Z,71.06
2023-02-06T06:41:53.458Z,71.10
2023-02-06T06:44:21.940Z,70.94
2023-02-06T06:46:50.215Z,71.16
2023-02-06T06:49:18.580Z,71.04
2023-02-06T06:51:46.863Z,71.32
2023-02-06T06:54:16.306Z,71.35
2023-02-06T06:56:44.546Z,71.21
2023-02-06T06:59:13.026Z,71.41
2023-02-06T07:01:41.495Z,71.66
2023-02-06T07:04:09.832Z,71.61
2023-02-06T07:06:38.166Z,71.59
2023-02-06T07:09:06.492Z,71.12
2023-02-06T07:11:34.806Z,71.18
2023-02-06T07:14:03.588Z,71.02
2023-02-06T07:16:31.982Z,71.21
2023-02-06T07:19:00.306Z,71.44
2023-02-06T07:21:28.566Z,71.63
2023-02-06T07:23:56.889Z,71.72
2023-02-06T07:26:25.171Z,72.02
2023-02-06T07:28:53.586Z,72.11
2023-02-06T07:31:22.710Z,71.97
2023-02-06T07:33:51.047Z,72.28
2023-02-06T07:36:19.413Z,72.05
2023-02-06T07:38:47.723Z,71.83
2023-02-06T07:41:16.912Z,71.97
2023-02-06T07:43:45.871Z,71.89
2023-02-06T07:46:14.164Z,72.12
2023-02-06T07:48:43.528Z,71.90
2023-02-06T07:51:11.925Z,72.16
2023-02-06T07:53:40.203Z,72.10
2023-02-06T07:56:13.501Z,72.13
2023-02-06T07:58:42.362Z,72.29
2023-02-06T08:01:10.840Z,72.42
2023-02-06T08:03:39.233Z,72.41
2023-02-06T08:06:15.748Z,72.40
2023-02-06T08:08:45.060Z,72.58
2023-02-06T08:11:16.552Z,72.76
2023-02-06T08:13:46.162Z,72.83
2023-02-06T08:16:17.909Z,72.42
2023-02-06T08:18:47.283Z,72.96
2023-02-06T08:21:23.666Z,73.22
2023-02-06T08:23:59.730Z,72.96
2023-02-06T08:26:29.974Z,73.04
2023-02-06T08:28:59.903Z,73.28
2023-02-06T08:31:31.081Z,73.19
2023-02-06T08:33:59.532Z,73.47
2023-02-06T08:36:33.733Z,73.23
2023-02-06T08:39:02.911Z,73.61
2023-02-06T08:41:40.008Z,73.61
2023-02-06T08:44:12.707Z,73.63
2023-02-06T08:46:41.206Z,73.68
2023-02-06T08:49:14.457Z,73.47
2023-02-06T08:51:43.006Z,73.74
2023-02-06T08:54:16.609Z,73.79
2023-02-06T08:56:45.788Z,73.48
2023-02-06T08:59:16.001Z,73.61
2023-02-06T09:01:46.391Z,73.75
2023-02-06T09:04:15.369Z,74.05
2023-02-06T09:06:45.873Z,74.00
2023-02-06T09:09:14.721Z,73.80
2023-02-06T09:11:43.492Z,73.99
2023-02-06T09:14:16.497Z,73.91
2023-02-06T09:16:45.169Z,73.80
2023-02-06T09:19:13.638Z,74.21
2023-02-06T09:21:42.188Z,73.99
2023-02-06T09:24:12.402Z,74.16
2023-02-06T09:26:58.451Z,73.74
2023-02-06T09:29:34.977Z,74.07
2023-02-06T09:32:03.339Z,73.75
2023-02-06T09:34:31.803Z,73.90
2023-02-06T09:37:03.048Z,73.83
2023-02-06T09:39:32.473Z,74.20
2023-02-06T09:42:13.400Z,74.21
2023-02-06T09:44:54.951Z,74.27
2023-02-06T09:47:40.929Z,74.50
2023-02-06T09:50:23.095Z,74.12
2023-02-06T09:53:09.020Z,74.46
2023-02-06T09:55:59.301Z,74.47
2023-02-06T09:58:30.387Z,74.19
2023-02-06T10:01:35.877Z,73.87
2023-02-06T10:04:35.932Z,74.67
2023-02-06T10:07:48.584Z,74.63
2023-02-06T10:10:38.481Z,74.66
2023-02-06T10:13:29.241Z,74.41
2023-02-06T10:16:04.584Z,74.48
2023-02-06T10:18:47.529Z,73.92
2023-02-06T10:21:38.054Z,74.44
2023-02-06T10:24:10.234Z,74.53
2023-02-06T10:26:40.764Z,74.42
2023-02-06T10:29:16.910Z,74.67
2023-02-06T10:32:04.812Z,74.55
2023-02-06T10:34:46.297Z,74.50
2023-02-06T10:37:29.552Z,74.33
2023-02-06T10:40:16.906Z,74.35
2023-02-06T10:42:50.346Z,74.50
2023-02-06T10:45:39.437Z,74.46
2023-02-06T10:48:33.768Z,74.69
2023-02-06T10:51:25.926Z,74.23
2023-02-06T10:53:59.787Z,74.30
2023-02-06T10:56:36.927Z,74.44
2023-02-06T10:59:19.030Z,74.26
2023-02-06T11:01:50.294Z,74.37
2023-02-06T11:04:28.242Z,74.73
2023-02-06T11:07:05.544Z,74.50
2023-02-06T11:09:34.639Z,74.81
2023-02-06T11:12:04.097Z,74.29
2023-02-06T11:14:38.353Z,74.18
2023-02-06T11:17:06.694Z,74.19
2023-02-06T11:19:47.443Z,74.25
2023-02-06T11:22:27.091Z,74.70
2023-02-06T11:25:08.730Z,74.68
2023-02-06T11:27:37.740Z,74.49
2023-02-06T11:30:22.184Z,74.28
2023-02-06T11:33:03.628Z,75.01
2023-02-06T11:35:47.347Z,75.06
2023-02-06T11:38:25.198Z,75.15
2023-02-06T11:41:17.624Z,75.04
2023-02-06T11:43:48.437Z,75.06
2023-02-06T11:46:27.001Z,75.33
2023-02-06T11:48:59.432Z,74.85
2023-02-06T11:51:46.339Z,74.82
2023-02-06T11:54:29.087Z,74.78
2023-02-06T11:57:28.905Z,74.75
2023-02-06T12:00:00.452Z,74.38
2023-02-06T12:02:30.978Z,75.24
2023-02-06T12:05:19.364Z,74.58
2023-02-06T12:07:56.113Z,75.21
2023-02-06T12:10:27.086Z,74.51
2023-02-06T12:13:01.896Z,74.25
2023-02-06T12:15:46.551Z,74.23
2023-02-06T12:18:40.348Z,74.57
2023-02-06T12:21:28.745Z,74.35
2023-02-06T12:24:03.220Z,75.34
2023-02-06T12:26:35.241Z,74.89
2023-02-06T12:29:21.448Z,74.99
2023-02-06T12:32:05.908Z,74.55
2023-02-06T12:34:45.464Z,75.20
2023-02-06T12:37:56.532Z,75.28
2023-02-06T12:40:49.727Z,75.27
2023-02-06T12:43:20.224Z,75.02
2023-02-06T12:45:58.901Z,74.90
2023-02-06T12:48:30.373Z,75.38
2023-02-06T12:51:07.409Z,75.28
2023-02-06T12:53:44.278Z,75.07
2023-02-06T12:56:22.392Z,75.17
2023-02-06T12:59:06.500Z,75.11
2023-02-06T13:01:52.936Z,75.47
2023-02-06T13:04:31.316Z,74.72
2023-02-06T13:07:09.184Z,74.74
2023-02-06T13:09:48.616Z,75.20
2023-02-06T13:12:20.751Z,74.98
2023-02-06T13:14:55.385Z,74.82
2023-02-06T13:17:28.035Z,74.73
2023-02-06T13:20:12.817Z,74.43
2023-02-06T13:22:45.727Z,74.70
2023-02-06T13:25:32.070Z,74.64
2023-02-06T13:28:23.793Z,75.25
2023-02-06T13:31:02.742Z,75.12
2023-02-06T13:33:53.608Z,75.33
2023-02-06T13:36:48.492Z,75.73
2023-02-06T13:39:32.022Z,74.82
2023-02-06T13:42:23.222Z,75.19
2023-02-06T13:44:53.031Z,75.15
2023-02-06T13:47:54.053Z,75.03
2023-02-06T13:50:30.256Z,74.73
2023-02-06T13:53:01.341Z,75.67
2023-02-06T13:55:53.711Z,74.69
2023-02-06T13:58:46.579Z,75.39
2023-02-06T14:01:27.190Z,74.83
2023-02-06T14:03:56.866Z,74.81
2023-02-06T14:06:39.803Z,74.68
2023-02-06T14:09:43.831Z,75.23
2023-02-06T14:12:45.524Z,75.04
2023-02-06T14:15:37.222Z,75.12
2023-02-06T14:18:33.645Z,75.28
2023-02-06T14:21:36.214Z,75.01
2023-02-06T14:24:26.934Z,75.15
2023-02-06T14:27:26.290Z,75.76
2023-02-06T14:30:31.381Z,75.35
2023-02-06T14:33:09.085Z,75.18
2023-02-06T14:36:04.205Z,75.39
2023-02-06T14:38:52.297Z,75.41
2023-02-06T14:41:21.016Z,75.58
2023-02-06T14:43:52.128Z,75.08
2023-02-06T14:46:21.383Z,75.52
2023-02-06T14:48:57.379Z,74.96
2023-02-06T14:51:40.205Z,75.00
2023-02-06T14:54:28.587Z,75.52
2023-02-06T14:56:58.741Z,75.58
2023-02-06T14:59:27.277Z,75.16
2023-02-06T15:01:57.837Z,75.42
2023-02-06T15:04:29.433Z,75.04
2023-02-06T15:07:05.616Z,75.02
2023-02-06T15:09:36.898Z,74.92
2023-02-06T15:12:19.686Z,74.58
2023-02-06T15:14:59.455Z,75.07
2023-02-06T15:17:28.062Z,75.12
2023-02-06T15:19:56.563Z,75.85
2023-02-06T15:22:31.229Z,75.13
2023-02-06T15:25:18.089Z,75.34
2023-02-06T15:27:47.036Z,74.88
2023-02-06T15:30:24.859Z,74.91
2023-02-06T15:32:55.495Z,75.44
2023-02-06T15:35:27.900Z,75.72
2023-02-06T15:37:57.704Z,75.35
2023-02-06T15:40:39.804Z,75.29
2023-02-06T15:43:08.191Z,75.26
2023-02-06T15:45:40.454Z,75.16
2023-02-06T15:48:36.373Z,76.06
2023-02-06T15:51:24.818Z,75.69
2023-02-06T15:54:17.598Z,75.70
2023-02-06T15:56:55.610Z,75.25
2023-02-06T15:59:26.497Z,75.12
2023-02-06T16:01:58.098Z,75.95
2023-02-06T16:04:36.269Z,75.28
2023-02-06T16:07:20.193Z,75.29
2023-02-06T16:10:26.112Z,75.29
2023-02-06T16:12:55.970Z,75.66
2023-02-06T16:15:36.733Z,75.21
2023-02-06T16:18:28.272Z,74.99
2023-02-06T16:21:24.167Z,75.91
2023-02-06T16:24:07.128Z,75.75
2023-02-06T16:26:47.961Z,75.23
2023-02-06T16:29:31.040Z,75.61
2023-02-06T16:32:15.168Z,75.37
2023-02-06T16:34:46.306Z,75.12
2023-02-06T16:37:23.088Z,74.63
2023-02-06T16:39:51.585Z,74.89
2023-02-06T16:42:33.705Z,74.05
2023-02-06T16:45:07.318Z,74.73
2023-02-06T16:47:35.689Z,74.47
2023-02-06T16:50:04.096Z,74.45
2023-02-06T16:52:34.497Z,74.25
2023-02-06T16:55:03.502Z,74.01
2023-02-06T16:57:35.903Z,73.98
2023-02-06T17:00:10.351Z,74.18
2023-02-06T17:02:39.189Z,74.30
2023-02-06T17:05:07.782Z,73.77
2023-02-06T17:07:36.172Z,74.04
2023-02-06T17:10:05.347Z,73.54
2023-02-06T17:12:34.056Z,73.47
2023-02-06T17:15:02.815Z,73.37
2023-02-06T17:17:31.391Z,73.06
2023-02-06T17:19:59.921Z,72.98
2023-02-06T17:22:28.331Z,72.72
2023-02-06T17:24:56.897Z,72.29
2023-02-06T17:27:25.226Z,72.36
2023-02-06T17:29:54.665Z,72.32
2023-02-06T17:32:23.777Z,72.41
2023-02-06T17:34:54.971Z,72.61
2023-02-06T17:37:23.373Z,72.20
2023-02-06T17:39:53.244Z,71.85
2023-02-06T17:42:24.050Z,71.68
2023-02-06T17:44:52.503Z,71.56
2023-02-06T17:47:20.948Z,71.33
2023-02-06T17:49:49.269Z,71.31
2023-02-06T17:52:17.994Z,71.12
2023-02-06T17:54:46.491Z,71.12
2023-02-06T17:57:14.765Z,70.77
2023-02-06T17:59:43.274Z,70.21
2023-02-06T18:02:17.200Z,69.99
2023-02-06T18:04:49.517Z,70.08
2023-02-06T18:07:17.880Z,69.44
2023-02-06T18:09:47.961Z,69.68
2023-02-06T18:12:16.866Z,68.97
2023-02-06T18:14:45.547Z,69.11
2023-02-06T18:17:14.055Z,69.10
2023-02-06T18:19:43.732Z,68.94
2023-02-06T18:22:15.151Z,68.80
2023-02-06T18:24:44.112Z,68.88
2023-02-06T18:27:13.140Z,68.34
2023-02-06T18:29:50.006Z,67.92
2023-02-06T18:32:20.027Z,67.89
2023-02-06T18:34:48.480Z,67.67
2023-02-06T18:37:17.134Z,67.03
2023-02-06T18:39:45.777Z,66.84
2023-02-06T18:42:32.547Z,65.14
2023-02-06T18:45:03.185Z,65.90
2023-02-06T18:47:32.290Z,65.93
2023-02-06T18:50:00.595Z,65.73
2023-02-06T18:52:29.011Z,65.48
2023-02-06T18:54:57.281Z,64.69
2023-02-06T18:57:25.596Z,65.00
2023-02-06T18:59:53.853Z,65.00
2023-02-06T19:02:22.213Z,64.13
2023-02-06T19:04:50.608Z,63.95
2023-02-06T19:07:19.333Z,63.35
2023-02-06T19:09:47.638Z,62.62
2023-02-06T19:12:15.967Z,62.30
2023-02-06T19:14:44.549Z,62.86
2023-02-06T19:17:12.905Z,63.14
2023-02-06T19:19:41.161Z,62.77
2023-02-06T19:22:09.401Z,63.14
2023-02-06T19:24:37.843Z,61.55
2023-02-06T19:27:06.131Z,62.39
2023-02-06T19:29:36.457Z,61.87
2023-02-06T19:32:07.181Z,60.81
2023-02-06T19:34:37.944Z,60.55
2023-02-06T19:37:11.113Z,60.62
2023-02-06T19:39:41.198Z,60.34
2023-02-06T19:42:11.436Z,59.97
2023-02-06T19:44:39.746Z,59.78
2023-02-06T19:47:08.009Z,58.33
2023-02-06T19:49:36.554Z,59.10
2023-02-06T19:52:05.452Z,59.30
2023-02-06T19:54:33.779Z,58.56
2023-02-06T19:57:02.071Z,57.97
2023-02-06T19:59:31.269Z,58.24
2023-02-06T20:02:01.971Z,57.93
2023-02-06T20:04:34.962Z,58.39
2023-02-06T20:07:03.861Z,58.41
2023-02-06T20:09:32.369Z,57.62
2023-02-06T20:12:00.649Z,57.19
2023-02-06T20:14:29.154Z,57.32
2023-02-06T20:16:57.549Z,56.85
2023-02-06T20:19:28.267Z,55.67
2023-02-06T20:21:59.944Z,56.77
2023-02-06T20:24:31.431Z,56.41
2023-02-06T20:27:02.598Z,55.91
2023-02-06T20:29:37.512Z,55.93
2023-02-06T20:32:07.251Z,55.00
2023-02-06T20:34:36.461Z,55.57
2023-02-06T20:37:05.664Z,55.42
2023-02-06T20:39:35.450Z,55.15
2023-02-06T20:42:03.749Z,55.37
2023-02-06T20:44:32.291Z,55.38
2023-02-06T20:47:00.730Z,55.40
2023-02-06T20:49:31.777Z,54.79
2023-02-06T20:52:00.062Z,54.78
2023-02-06T20:54:28.398Z,54.65
2023-02-06T20:56:56.982Z,53.52
2023-02-06T20:59:25.695Z,53.68
2023-02-06T21:01:54.071Z,53.66
2023-02-06T21:04:22.453Z,53.72
2023-02-06T21:06:50.893Z,53.09
2023-02-06T21:09:20.233Z,52.82
2023-02-06T21:11:51.491Z,52.56
2023-02-06T21:14:20.526Z,52.47
2023-02-06T21:16:49.748Z,52.32
2023-02-06T21:19:20.181Z,52.70
2023-02-06T21:21:48.767Z,52.56
2023-02-06T21:24:18.472Z,52.49
2023-02-06T21:26:46.778Z,52.14
2023-02-06T21:29:16.437Z,52.06
2023-02-06T21:31:45.790Z,52.22
2023-02-06T21:34:22.123Z,51.79
2023-02-06T21:36:51.991Z,50.44
2023-02-06T21:39:23.865Z,51.25
2023-02-06T21:41:52.768Z,50.06
2023-02-06T21:44:24.517Z,50.69
2023-02-06T21:46:53.272Z,50.96
2023-02-06T21:49:22.032Z,50.99
2023-02-06T21:51:51.297Z,50.22
2023-02-06T21:54:19.751Z,49.92
2023-02-06T21:56:48.029Z,50.13
2023-02-06T21:59:16.280Z,50.25
2023-02-06T22:01:44.530Z,49.08
2023-02-06T22:04:13.227Z,49.18
2023-02-06T22:06:41.626Z,49.43
2023-02-06T22:09:16.009Z,48.83
2023-02-06T22:11:45.411Z,48.89
2023-02-06T22:14:18.329Z,49.23
2023-02-06T22:16:50.072Z,48.33
2023-02-06T22:19:19.388Z,48.48
2023-02-06T22:21:47.666Z,47.74
2023-02-06T22:24:15.917Z,46.29
2023-02-06T22:26:44.798Z,46.30
2023-02-06T22:29:16.720Z,46.34
2023-02-06T22:31:46.739Z,46.80
2023-02-06T22:34:21.062Z,45.87
2023-02-06T22:36:51.788Z,45.87
2023-02-06T22:39:20.626Z,45.72
2023-02-06T22:41:49.754Z,46.46
2023-02-06T22:44:20.686Z,46.22
2023-02-06T22:46:52.111Z,45.53
2023-02-06T22:49:22.605Z,45.44
2023-02-06T22:51:51.148Z,45.48
2023-02-06T22:54:19.625Z,45.10
2023-02-06T22:56:48.566Z,45.18
2023-02-06T22:59:20.808Z,45.09
2023-02-06T23:01:50.447Z,44.65
2023-02-06T23:04:29.780Z,44.90
2023-02-06T23:06:58.560Z,44.56
2023-02-06T23:09:29.779Z,44.59
2023-02-06T23:12:01.865Z,44.01
2023-02-06T23:14:32.580Z,44.53
2023-02-06T23:17:01.983Z,44.72
2023-02-06T23:19:31.100Z,44.01
2023-02-06T23:21:59.610Z,44.31
2023-02-06T23:24:27.923Z,44.53
2023-02-06T23:26:56.346Z,44.53
2023-02-06T23:29:25.142Z,44.43
2023-02-06T23:31:53.632Z,44.44
2023-02-06T23:34:25.075Z,44.74
2023-02-06T23:36:53.909Z,44.80
2023-02-06T23:39:22.827Z,44.93
2023-02-06T23:41:51.338Z,44.97
2023-02-06T23:44:20.293Z,45.01
2023-02-06T23:46:48.750Z,45.00
2023-02-06T23:49:17.137Z,43.72
2023-02-06T23:51:45.851Z,44.91
2023-02-06T23:54:14.303Z,45.34
2023-02-06T23:56:42.590Z,45.31
2023-02-06T23:59:12.976Z,45.37
